Hovedside
METAR-TAF:

METAR-TAF

Lufthavner :

Rome State Airport

Rome, Oregon, USA

breddegrad: 42-35-26N, lengdegrad: 117-51-52W, høyde over havet: 1234 m

Gjeldene værobservasjon

Denne rapporten ble laget for 48 minutter siden, klokken 04:52 UTC
Vind 11 kt fra Sør
Temperatur 2°C
Luftfuktighet 51%
Trykk 1025 hPa

METAR: KREO 180452Z AUTO 18011KT 02/M07 A3026 RMK AO1 SLP268 T00171072

Tid: 22:40 (05:40 UTC)


TAF: fraværende

Værobservasjoner og værvarsel for over 4000 flyplasser (METAR- og TAF-rapporter).

Tilgjengelige stasjoner er representert av de røde og gule prikkene på kartet.

Hold musepekeren over prikken for å se navnet på stasjonen.

Klikk så for å se værobservasjoner og -varsler.

For å forandre kartet kan du klikke på den grønne knappen med svart kryss for å zoome inn, på den grønne knappen med strek for å zoome ut, eller på de grønne pilene for å se tilstøtende kart.


METAR-TAF: